Time;durP1;ratioP1;P1;durP2;ratioP2;P2;SDS_P1;SDS_P2;PMS_P1;PMS_P2;Temp;Humidity;BMP_temperature;BMP_pressure;BME280_temperature;BME280_humidity;BME280_pressure;Samples;Min_cycle;Max_cycle;Signal;HPM_P1;HPM_P2
2022/03/11 00:00:30;;;;;;;4.03;2.37;;;;;;;-3.61;39.35;100884.06;1752723;80;21006;-64
2022/03/11 00:02:57;;;;;;;3.95;2.25;;;;;;;-3.66;39.43;100876.41;1743923;82;20901;-66
2022/03/11 00:05:25;;;;;;;3.92;2.37;;;;;;;-3.67;39.44;100879.05;1742646;80;21463;-65
2022/03/11 00:07:52;;;;;;;3.47;2.37;;;;;;;-3.66;39.51;100880.76;1740001;81;20941;-64
2022/03/11 00:10:20;;;;;;;3.87;2.15;;;;;;;-3.73;39.61;100882.71;1742108;82;21325;-65
2022/03/11 00:12:48;;;;;;;2.27;1.80;;;;;;;-3.78;39.72;100878.93;1744318;80;20968;-64
2022/03/11 00:15:17;;;;;;;3.55;2.08;;;;;;;-3.82;39.77;100877.34;1752195;80;20944;-64
2022/03/11 00:17:44;;;;;;;3.77;2.10;;;;;;;-3.82;39.85;100874.73;1743060;81;20956;-66
2022/03/11 00:20:11;;;;;;;4.28;2.92;;;;;;;-3.81;39.88;100871.69;1749322;80;20963;-64
2022/03/11 00:22:39;;;;;;;3.85;2.08;;;;;;;-3.88;40.02;100867.55;1761783;80;21247;-65
2022/03/11 00:25:09;;;;;;;3.40;1.98;;;;;;;-3.92;40.17;100872.45;1766559;80;20970;-64
2022/03/11 00:27:36;;;;;;;3.15;2.17;;;;;;;-3.91;40.23;100873.70;1742437;81;20984;-64
2022/03/11 00:30:04;;;;;;;4.30;2.22;;;;;;;-3.92;40.29;100878.52;1747392;80;20995;-64
2022/03/11 00:32:34;;;;;;;3.85;2.17;;;;;;;-3.92;40.34;100879.81;1757350;80;21544;-67
2022/03/11 00:35:01;;;;;;;3.45;2.08;;;;;;;-3.96;40.48;100880.78;1756154;80;21234;-63
2022/03/11 00:37:28;;;;;;;2.87;1.92;;;;;;;-4.01;40.67;100880.07;1754356;80;20928;-64
2022/03/11 00:39:55;;;;;;;4.67;2.15;;;;;;;-4.05;41.02;100881.52;1745750;80;20941;-66
2022/03/11 00:42:22;;;;;;;4.53;2.02;;;;;;;-4.07;41.37;100879.42;1771952;80;20966;-64
2022/03/11 00:44:50;;;;;;;2.85;1.98;;;;;;;-4.12;41.81;100876.92;1756403;80;21494;-65
2022/03/11 00:47:16;;;;;;;3.62;1.92;;;;;;;-4.17;42.06;100878.81;1755381;80;21427;-65
2022/03/11 00:49:44;;;;;;;3.27;2.40;;;;;;;-4.11;42.08;100872.59;1741347;81;21015;-66
2022/03/11 00:52:11;;;;;;;4.03;2.52;;;;;;;-4.12;42.09;100870.43;1742167;82;21060;-64
2022/03/11 00:54:38;;;;;;;5.05;2.72;;;;;;;-4.16;42.12;100873.17;1767630;80;21560;-63
2022/03/11 00:57:07;;;;;;;5.15;2.50;;;;;;;-4.22;42.27;100879.39;1748861;80;20957;-66
2022/03/11 00:59:34;;;;;;;4.08;2.70;;;;;;;-4.24;42.32;100882.49;1754638;80;21245;-64
2022/03/11 01:02:03;;;;;;;4.42;2.55;;;;;;;-4.29;42.36;100882.22;1772799;80;21606;-67
2022/03/11 01:04:30;;;;;;;4.12;2.95;;;;;;;-4.32;42.42;100884.45;1773441;80;21476;-66
2022/03/11 01:06:57;;;;;;;4.35;2.45;;;;;;;-4.36;42.49;100882.86;1759083;80;20931;-64
2022/03/11 01:09:25;;;;;;;3.30;2.20;;;;;;;-4.39;42.56;100874.70;1758720;80;20875;-65
2022/03/11 01:11:52;;;;;;;2.95;2.12;;;;;;;-4.37;42.59;100874.64;1773034;80;21217;-64
2022/03/11 01:14:21;;;;;;;3.85;2.50;;;;;;;-4.40;42.71;100879.92;1770304;80;20982;-65
2022/03/11 01:16:48;;;;;;;2.98;1.95;;;;;;;-4.42;42.81;100881.72;1748626;80;20978;-61
2022/03/11 01:19:17;;;;;;;3.83;1.90;;;;;;;-4.45;42.88;100881.80;1749655;80;20865;-63
2022/03/11 01:21:46;;;;;;;5.42;2.33;;;;;;;-4.47;42.97;100877.95;1756461;80;21038;-65
2022/03/11 01:24:13;;;;;;;3.10;1.72;;;;;;;-4.51;43.04;100871.59;1773548;80;21155;-64
2022/03/11 01:26:42;;;;;;;3.25;2.22;;;;;;;-4.52;43.10;100881.57;1762470;80;20954;-63
2022/03/11 01:29:09;;;;;;;4.72;2.65;;;;;;;-4.55;43.06;100881.20;1756506;80;21035;-65
2022/03/11 01:31:37;;;;;;;3.62;2.58;;;;;;;-4.56;42.99;100885.13;1744624;80;20953;-65
2022/03/11 01:34:04;;;;;;;3.60;2.33;;;;;;;-4.60;42.92;100890.02;1743518;80;21031;-63
2022/03/11 01:36:31;;;;;;;3.98;2.27;;;;;;;-4.62;42.88;100891.37;1753241;80;21535;-64
2022/03/11 01:38:59;;;;;;;3.15;2.25;;;;;;;-4.63;42.92;100892.69;1772006;80;21496;-64
2022/03/11 01:41:26;;;;;;;3.85;2.17;;;;;;;-4.64;42.95;100894.90;1764790;80;21554;-66
2022/03/11 01:44:06;;;;;;;3.37;2.30;;;;;;;-4.65;42.98;100890.59;1755260;80;21153;-67
2022/03/11 01:46:33;;;;;;;4.67;2.67;;;;;;;-4.67;42.92;100888.48;1713661;82;21123;-64
2022/03/11 01:49:01;;;;;;;4.05;2.60;;;;;;;-4.69;42.90;100887.69;1766739;80;21239;-64
2022/03/11 01:51:30;;;;;;;6.90;2.80;;;;;;;-4.72;42.89;100885.16;1752630;80;21097;-63
2022/03/11 01:53:58;;;;;;;4.90;2.70;;;;;;;-4.54;42.54;100888.56;1758759;80;21674;-64
2022/03/11 01:56:25;;;;;;;4.17;2.27;;;;;;;-4.71;42.68;100886.41;1742100;81;20991;-66
2022/03/11 01:58:55;;;;;;;3.02;1.80;;;;;;;-4.73;42.64;100892.53;1748387;80;20976;-64
2022/03/11 02:01:22;;;;;;;3.47;2.08;;;;;;;-4.74;42.61;100896.87;1747680;80;21202;-65
2022/03/11 02:03:51;;;;;;;2.77;1.80;;;;;;;-4.77;42.59;100901.31;1759500;80;20999;-65
2022/03/11 02:06:19;;;;;;;3.72;1.75;;;;;;;-4.78;42.56;100899.59;1764615;80;21594;-66
2022/03/11 02:08:48;;;;;;;2.30;1.90;;;;;;;-4.75;42.54;100898.22;1772742;80;20999;-64
2022/03/11 02:11:15;;;;;;;3.33;2.52;;;;;;;-4.80;42.53;100898.35;1773377;80;20915;-66
2022/03/11 02:13:49;;;;;;;4.22;2.80;;;;;;;-4.82;42.62;100904.48;1770094;80;20911;-65
2022/03/11 02:16:22;;;;;;;4.72;3.05;;;;;;;-4.83;42.69;100906.66;1762676;80;20911;-66
2022/03/11 02:18:51;;;;;;;3.47;2.27;;;;;;;-4.87;42.77;100905.88;1770984;80;20979;-65
2022/03/11 02:21:22;;;;;;;4.90;2.50;;;;;;;-4.88;42.88;100908.52;1750069;80;21083;-67
2022/03/11 02:23:52;;;;;;;4.65;2.10;;;;;;;-4.90;42.92;100903.81;1748412;80;21516;-66
2022/03/11 02:26:22;;;;;;;2.62;1.98;;;;;;;-4.95;43.04;100904.38;1763138;80;21238;-67
2022/03/11 02:28:50;;;;;;;2.62;1.77;;;;;;;-4.98;43.18;100897.97;1772529;80;21005;-65
2022/03/11 02:31:19;;;;;;;2.35;1.60;;;;;;;-5.02;43.33;100901.93;1771023;80;21043;-66
2022/03/11 02:33:46;;;;;;;1.90;1.30;;;;;;;-5.04;43.48;100902.42;1763998;80;20978;-65
2022/03/11 02:36:13;;;;;;;2.08;1.60;;;;;;;-5.06;43.59;100896.87;1763371;80;21082;-66
2022/03/11 02:38:42;;;;;;;2.15;1.62;;;;;;;-5.05;43.73;100899.84;1769002;80;21163;-66
2022/03/11 02:41:09;;;;;;;2.02;1.40;;;;;;;-5.06;43.79;100902.88;1762855;80;20930;-66
2022/03/11 02:43:38;;;;;;;2.20;1.55;;;;;;;-5.08;43.83;100903.81;1773208;80;21457;-67
2022/03/11 02:46:05;;;;;;;1.35;1.20;;;;;;;-5.11;43.94;100908.64;1747436;80;20968;-65
2022/03/11 02:48:32;;;;;;;1.67;1.15;;;;;;;-5.13;43.97;100906.53;1766388;80;21033;-66
2022/03/11 02:51:00;;;;;;;2.08;1.25;;;;;;;-5.14;44.01;100905.28;1769426;80;21247;-67
2022/03/11 02:53:27;;;;;;;3.15;1.80;;;;;;;-5.17;44.04;100903.62;1751852;80;21007;-66
2022/03/11 02:55:58;;;;;;;1.50;1.10;;;;;;;-5.18;44.12;100899.30;1752700;80;20958;-67
2022/03/11 02:58:25;;;;;;;2.22;1.40;;;;;;;-5.19;44.09;100906.67;1754107;80;21092;-66
2022/03/11 03:00:52;;;;;;;2.35;1.35;;;;;;;-5.21;44.01;100902.41;1772686;80;22213;-65
2022/03/11 03:03:19;;;;;;;4.78;1.72;;;;;;;-5.21;44.05;100900.67;1767756;80;21335;-63
2022/03/11 03:05:47;;;;;;;4.47;1.85;;;;;;;-5.19;43.99;100892.40;1747258;80;21477;-66
2022/03/11 03:08:14;;;;;;;1.90;1.27;;;;;;;-5.18;43.88;100894.56;1754659;80;21014;-66
2022/03/11 03:10:42;;;;;;;3.67;1.75;;;;;;;-5.17;43.81;100904.91;1749790;80;21495;-64
2022/03/11 03:13:09;;;;;;;1.77;1.40;;;;;;;-5.17;43.70;100895.84;1742468;80;21075;-66
2022/03/11 03:15:37;;;;;;;2.27;1.50;;;;;;;-5.18;43.64;100893.26;1749418;81;21215;-63
2022/03/11 03:18:04;;;;;;;2.10;1.52;;;;;;;-5.23;43.67;100888.19;1726836;81;20990;-64
2022/03/11 03:20:32;;;;;;;2.75;1.60;;;;;;;-5.24;43.75;100890.84;1754720;80;20966;-65
2022/03/11 03:23:01;;;;;;;2.47;1.70;;;;;;;-5.28;43.85;100893.94;1752693;80;20911;-64
2022/03/11 03:25:29;;;;;;;3.10;1.80;;;;;;;-5.30;44.00;100895.73;1744766;80;21022;-66
2022/03/11 03:27:57;;;;;;;4.75;1.72;;;;;;;-5.31;44.08;100897.90;1742168;80;21265;-63
2022/03/11 03:30:25;;;;;;;3.72;2.05;;;;;;;-5.33;44.18;100897.09;1738829;81;21006;-66
2022/03/11 03:32:52;;;;;;;2.95;2.00;;;;;;;-5.32;44.23;100901.37;1701726;82;21003;-62
2022/03/11 03:35:19;;;;;;;4.42;2.15;;;;;;;-5.32;44.30;100904.44;1723567;82;21043;-66
2022/03/11 03:37:47;;;;;;;3.45;1.85;;;;;;;-5.38;44.51;100898.95;1726840;82;20936;-65
2022/03/11 03:40:16;;;;;;;4.55;2.35;;;;;;;-5.42;44.65;100899.06;1761456;80;21263;-64
2022/03/11 03:42:46;;;;;;;3.75;1.70;;;;;;;-5.43;44.80;100902.53;1759766;80;21415;-67
2022/03/11 03:45:15;;;;;;;2.40;1.80;;;;;;;-5.45;44.96;100897.39;1742753;80;20913;-65
2022/03/11 03:47:42;;;;;;;2.67;1.65;;;;;;;-5.45;45.08;100903.88;1741220;80;20927;-65
2022/03/11 03:50:11;;;;;;;4.67;2.08;;;;;;;-5.45;45.19;100902.59;1744382;81;20944;-66
2022/03/11 03:52:38;;;;;;;3.25;1.67;;;;;;;-5.50;45.34;100903.11;1759042;80;21123;-64
2022/03/11 03:55:07;;;;;;;2.50;1.70;;;;;;;-5.54;45.46;100896.73;1760135;80;20995;-65
2022/03/11 03:57:35;;;;;;;2.65;1.75;;;;;;;-5.57;45.54;100902.84;1766319;80;20982;-66
2022/03/11 04:00:02;;;;;;;3.30;1.87;;;;;;;-5.55;45.56;100902.36;1745242;80;20998;-63
2022/03/11 04:02:33;;;;;;;1.95;1.52;;;;;;;-5.56;45.57;100907.16;1765552;80;21524;-65
2022/03/11 04:05:00;;;;;;;2.00;1.60;;;;;;;-5.60;45.66;100909.39;1772910;80;21268;-65
2022/03/11 04:07:27;;;;;;;2.45;1.62;;;;;;;-5.65;45.75;100910.80;1761620;80;21384;-67
2022/03/11 04:09:56;;;;;;;3.15;1.70;;;;;;;-5.64;45.82;100911.66;1756367;80;21027;-66
2022/03/11 04:12:25;;;;;;;3.25;1.85;;;;;;;-5.65;45.89;100913.84;1744074;80;20869;-65
2022/03/11 04:14:54;;;;;;;3.08;1.65;;;;;;;-5.70;45.97;100910.06;1746564;80;20903;-63
2022/03/11 04:17:22;;;;;;;2.98;1.55;;;;;;;-5.69;46.04;100912.21;1761189;80;22173;-65
2022/03/11 04:19:50;;;;;;;2.52;1.62;;;;;;;-5.73;46.16;100911.85;1742943;81;21466;-64
2022/03/11 04:22:17;;;;;;;3.27;1.60;;;;;;;-5.75;46.25;100913.20;1743695;80;21428;-65
2022/03/11 04:24:46;;;;;;;2.20;1.50;;;;;;;-5.76;46.32;100908.89;1755936;80;20975;-64
2022/03/11 04:27:14;;;;;;;2.22;1.52;;;;;;;-5.77;46.35;100914.12;1756748;80;20892;-65
2022/03/11 04:29:41;;;;;;;2.23;1.43;;;;;;;-5.79;46.34;100911.55;1742699;80;21230;-66
2022/03/11 04:32:08;;;;;;;3.40;1.87;;;;;;;-5.75;46.26;100913.63;1755986;80;20968;-67
2022/03/11 04:34:37;;;;;;;2.85;1.70;;;;;;;-5.75;46.14;100920.98;1767587;80;21489;-65
2022/03/11 04:37:05;;;;;;;2.75;1.50;;;;;;;-5.74;46.03;100919.24;1759120;80;21608;-64
2022/03/11 04:39:32;;;;;;;3.30;1.75;;;;;;;-5.74;45.92;100916.21;1742098;80;20971;-64
2022/03/11 04:42:00;;;;;;;4.10;2.15;;;;;;;-5.73;45.85;100913.16;1760055;80;21286;-65
2022/03/11 04:44:27;;;;;;;15.32;5.83;;;;;;;-5.74;45.81;100927.88;1773266;80;20907;-65
2022/03/11 04:46:55;;;;;;;22.22;7.80;;;;;;;-5.68;45.82;100921.67;1757694;80;20946;-64
2022/03/11 04:49:22;;;;;;;10.40;5.25;;;;;;;-5.56;45.86;100929.64;1743385;82;21490;-66
2022/03/11 04:51:49;;;;;;;8.50;4.67;;;;;;;-5.39;45.81;100933.98;1744463;80;21553;-65
2022/03/11 04:54:17;;;;;;;6.30;3.02;;;;;;;-5.14;45.71;100939.88;1762742;80;21202;-65
2022/03/11 04:56:44;;;;;;;4.47;2.20;;;;;;;-4.87;45.38;100939.62;1760099;80;20841;-66
2022/03/11 04:59:11;;;;;;;5.72;2.22;;;;;;;-4.54;45.10;100939.21;1746914;80;20931;-66
2022/03/11 05:01:38;;;;;;;5.60;3.37;;;;;;;-4.16;44.62;100934.25;1754227;80;20990;-65
2022/03/11 05:04:06;;;;;;;10.78;6.47;;;;;;;-3.80;44.05;100941.84;1762535;80;20945;-67
2022/03/11 05:06:35;;;;;;;12.95;6.85;;;;;;;-3.42;43.41;100934.20;1753874;80;21236;-67
2022/03/11 05:09:02;;;;;;;8.85;5.60;;;;;;;-3.02;42.95;100923.81;1705375;84;21582;-67
2022/03/11 05:11:29;;;;;;;6.20;4.08;;;;;;;-2.51;42.11;100932.02;1757564;80;21605;-68
2022/03/11 05:13:57;;;;;;;4.25;2.80;;;;;;;-2.12;41.29;100920.63;1745515;80;21051;-65
2022/03/11 05:16:25;;;;;;;2.80;2.17;;;;;;;-1.80;40.42;100922.05;1758357;80;20923;-61
2022/03/11 05:18:53;;;;;;;3.90;1.82;;;;;;;-1.46;40.06;100922.42;1771483;80;21548;-65
2022/03/11 05:21:21;;;;;;;2.80;1.80;;;;;;;-1.10;39.46;100921.44;1773172;80;20944;-65
2022/03/11 05:23:48;;;;;;;2.22;1.90;;;;;;;-0.72;38.79;100922.45;1757558;80;21611;-66
2022/03/11 05:26:26;;;;;;;3.17;2.65;;;;;;;-0.36;38.04;100920.02;1762609;80;21445;-64
2022/03/11 05:28:55;;;;;;;3.65;2.55;;;;;;;-0.02;37.21;100920.22;1756711;80;21497;-66
2022/03/11 05:31:25;;;;;;;4.35;2.58;;;;;;;0.24;36.52;100917.73;1759142;80;21237;-67
2022/03/11 05:33:52;;;;;;;5.25;3.20;;;;;;;0.47;36.10;100915.73;1755507;80;21485;-66
2022/03/11 05:36:19;;;;;;;3.77;2.60;;;;;;;0.74;35.61;100921.45;1754549;80;20951;-65
2022/03/11 05:38:47;;;;;;;3.62;2.72;;;;;;;1.06;35.36;100915.50;1763982;80;20904;-64
2022/03/11 05:41:15;;;;;;;4.47;2.25;;;;;;;1.39;34.93;100919.96;1767588;80;20974;-66
2022/03/11 05:43:42;;;;;;;5.12;2.98;;;;;;;1.67;34.37;100916.30;1753574;80;21309;-65
2022/03/11 05:46:09;;;;;;;7.90;2.72;;;;;;;1.85;33.68;100928.00;1760988;80;21639;-66
2022/03/11 05:48:36;;;;;;;3.08;1.95;;;;;;;2.06;33.70;100926.02;1773085;80;21035;-64
2022/03/11 05:51:04;;;;;;;5.05;2.50;;;;;;;2.36;33.22;100923.08;1765040;80;21006;-65
2022/03/11 05:53:31;;;;;;;3.00;2.50;;;;;;;2.71;32.53;100928.17;1770613;80;21492;-66
2022/03/11 05:55:58;;;;;;;6.25;2.65;;;;;;;2.99;31.96;100930.47;1769054;80;21253;-65
2022/03/11 05:58:25;;;;;;;3.30;2.33;;;;;;;3.19;31.00;100933.25;1770993;80;20880;-66
2022/03/11 06:00:53;;;;;;;3.33;2.33;;;;;;;3.37;30.86;100924.75;1772334;80;21064;-66
2022/03/11 06:03:20;;;;;;;3.67;2.65;;;;;;;3.54;30.40;100921.99;1765769;80;21010;-68
2022/03/11 06:05:48;;;;;;;3.47;2.67;;;;;;;3.59;30.01;100922.10;1760135;80;20904;-70
2022/03/11 06:08:16;;;;;;;3.60;2.72;;;;;;;3.67;29.77;100911.97;1764096;80;21234;-66
2022/03/11 06:10:45;;;;;;;4.58;2.65;;;;;;;3.66;29.37;100914.67;1762331;80;20991;-65
2022/03/11 06:13:14;;;;;;;5.40;2.77;;;;;;;3.71;29.34;100919.19;1758756;80;21050;-66
2022/03/11 06:15:42;;;;;;;4.42;2.50;;;;;;;3.87;29.09;100923.91;1743655;81;20952;-66
2022/03/11 06:18:10;;;;;;;3.20;2.30;;;;;;;4.03;28.75;100928.63;1743568;80;21538;-66
2022/03/11 06:20:37;;;;;;;3.80;2.25;;;;;;;4.16;28.63;100921.66;1756487;80;21246;-65
2022/03/11 06:23:06;;;;;;;3.92;2.55;;;;;;;4.29;28.49;100921.74;1702389;84;20962;-65
2022/03/11 06:25:33;;;;;;;3.70;2.55;;;;;;;4.44;28.24;100920.77;1753294;80;21102;-65
2022/03/11 06:28:00;;;;;;;5.35;2.90;;;;;;;4.63;28.29;100929.69;1771948;80;21006;-66
2022/03/11 06:30:29;;;;;;;6.17;3.92;;;;;;;4.91;27.84;100931.77;1761158;80;20951;-65
2022/03/11 06:33:00;;;;;;;3.65;2.77;;;;;;;5.06;27.44;100926.45;1756738;80;22044;-65
2022/03/11 06:35:27;;;;;;;5.05;2.55;;;;;;;5.20;27.17;100925.91;1743658;80;20991;-66
2022/03/11 06:37:54;;;;;;;4.22;2.55;;;;;;;5.31;27.01;100919.92;1759026;80;20972;-65
2022/03/11 06:40:22;;;;;;;3.15;2.52;;;;;;;5.39;26.72;100926.39;1762283;80;21071;-63
2022/03/11 06:42:49;;;;;;;4.97;2.87;;;;;;;5.49;26.64;100922.17;1758987;80;21377;-62
2022/03/11 06:45:17;;;;;;;5.92;4.62;;;;;;;5.76;26.61;100926.53;1769032;80;21183;-67
2022/03/11 06:47:46;;;;;;;6.25;5.35;;;;;;;6.09;26.31;100921.59;1753715;80;20894;-65
2022/03/11 06:50:15;;;;;;;11.18;5.42;;;;;;;6.31;25.48;100919.62;1743639;80;21523;-65
2022/03/11 06:52:44;;;;;;;4.47;3.58;;;;;;;6.43;25.24;100922.23;1741090;80;20907;-65
2022/03/11 06:55:13;;;;;;;5.90;4.08;;;;;;;6.53;25.10;100917.97;1752719;80;20984;-67
2022/03/11 06:57:40;;;;;;;8.08;4.10;;;;;;;6.58;25.04;100917.63;1749864;80;21215;-67
2022/03/11 07:00:09;;;;;;;6.78;4.58;;;;;;;6.73;24.92;100913.41;1746241;80;21023;-66
2022/03/11 07:02:37;;;;;;;5.30;3.85;;;;;;;6.84;24.51;100911.30;1754485;80;20933;-65
2022/03/11 07:05:06;;;;;;;4.45;3.05;;;;;;;6.88;24.34;100915.90;1768390;80;21082;-63
2022/03/11 07:07:33;;;;;;;6.72;3.98;;;;;;;6.94;24.10;100907.49;1760446;80;21097;-65
2022/03/11 07:10:05;;;;;;;5.67;3.30;;;;;;;6.93;24.11;100911.97;1751815;80;22143;-66
2022/03/11 07:12:32;;;;;;;6.08;4.30;;;;;;;7.15;23.94;100908.08;1751451;80;21011;-66
2022/03/11 07:15:02;;;;;;;5.30;3.58;;;;;;;7.32;23.88;100905.03;1772098;80;20982;-64
2022/03/11 07:17:29;;;;;;;5.28;3.30;;;;;;;7.54;23.54;100908.69;1773062;80;20927;-67
2022/03/11 07:19:56;;;;;;;4.05;3.10;;;;;;;7.68;23.20;100905.37;1765338;80;20949;-67
2022/03/11 07:22:25;;;;;;;3.17;2.52;;;;;;;7.74;22.81;100906.70;1763182;80;20887;-67
2022/03/11 07:24:54;;;;;;;3.95;2.35;;;;;;;7.82;22.61;100901.16;1761778;80;20978;-68
2022/03/11 07:27:22;;;;;;;3.47;2.85;;;;;;;7.84;22.31;100896.61;1750449;80;20943;-67
2022/03/11 07:29:50;;;;;;;3.37;2.35;;;;;;;7.94;22.33;100894.08;1747811;80;20923;-72
2022/03/11 07:32:17;;;;;;;3.45;2.77;;;;;;;8.08;22.32;100894.67;1749980;80;21693;-66
2022/03/11 07:34:46;;;;;;;3.50;2.50;;;;;;;8.32;21.97;100899.03;1754081;80;21158;-64
2022/03/11 07:37:13;;;;;;;3.52;2.47;;;;;;;8.46;21.86;100894.81;1747579;80;20941;-69
2022/03/11 07:39:41;;;;;;;3.35;2.58;;;;;;;8.56;21.76;100897.08;1761875;80;21022;-67
2022/03/11 07:42:08;;;;;;;3.30;2.60;;;;;;;8.78;21.38;100899.70;1750571;80;20937;-67
2022/03/11 07:44:35;;;;;;;3.08;2.45;;;;;;;8.88;21.05;100899.78;1752754;80;21006;-68
2022/03/11 07:47:03;;;;;;;4.55;2.60;;;;;;;8.96;20.87;100893.37;1744417;80;21312;-66
2022/03/11 07:49:30;;;;;;;4.60;2.67;;;;;;;9.03;20.86;100888.75;1747170;80;20941;-66
2022/03/11 07:51:58;;;;;;;3.02;2.72;;;;;;;9.16;20.79;100888.58;1760178;80;21441;-66
2022/03/11 07:54:25;;;;;;;4.30;3.45;;;;;;;9.15;20.43;100880.27;1743086;80;20940;-66
2022/03/11 07:56:52;;;;;;;7.97;4.80;;;;;;;9.18;20.53;100882.65;1758901;80;20987;-67
2022/03/11 07:59:19;;;;;;;5.15;3.83;;;;;;;9.38;20.52;100883.17;1765529;80;21248;-68
2022/03/11 08:01:47;;;;;;;7.92;4.97;;;;;;;9.65;20.55;100874.66;1768486;80;20880;-66
2022/03/11 08:04:16;;;;;;;9.38;5.50;;;;;;;9.85;20.14;100869.83;1771613;80;20983;-65
2022/03/11 08:06:44;;;;;;;6.00;3.75;;;;;;;10.00;20.19;100871.16;1756694;80;21461;-63
2022/03/11 08:09:11;;;;;;;5.90;3.00;;;;;;;10.30;20.22;100872.48;1760210;80;21565;-65
2022/03/11 08:11:38;;;;;;;3.92;3.00;;;;;;;10.78;19.96;100871.28;1749284;80;21267;-67
2022/03/11 08:14:07;;;;;;;6.03;3.92;;;;;;;11.09;19.38;100866.67;1760560;80;21044;-64
2022/03/11 08:16:34;;;;;;;2.77;2.10;;;;;;;11.17;18.92;100861.49;1751365;80;21093;-65
2022/03/11 08:19:02;;;;;;;6.08;3.85;;;;;;;11.08;18.78;100864.50;1766980;80;21706;-66
2022/03/11 08:21:30;;;;;;;3.75;2.77;;;;;;;11.06;18.61;100870.95;1758069;80;21492;-66
2022/03/11 08:23:57;;;;;;;2.77;2.20;;;;;;;11.00;18.79;100872.34;1764707;80;21320;-66
2022/03/11 08:26:27;;;;;;;3.12;2.83;;;;;;;11.12;18.63;100861.92;1761063;80;21033;-66
2022/03/11 08:28:54;;;;;;;4.08;2.80;;;;;;;11.20;18.35;100870.53;1772822;80;21037;-64
2022/03/11 08:31:21;;;;;;;3.72;2.30;;;;;;;11.23;18.35;100873.41;1759364;80;21515;-64
2022/03/11 08:33:49;;;;;;;6.90;3.52;;;;;;;11.33;18.35;100874.23;1754678;80;21512;-66
2022/03/11 08:36:16;;;;;;;5.60;2.40;;;;;;;11.47;18.45;100867.97;1755819;80;21305;-68
2022/03/11 08:38:46;;;;;;;3.45;2.40;;;;;;;11.59;18.39;100872.18;1771867;80;20939;-68
2022/03/11 08:41:14;;;;;;;5.78;2.10;;;;;;;11.80;18.46;100873.35;1748964;80;20959;-67
2022/03/11 08:43:41;;;;;;;2.87;1.95;;;;;;;12.06;18.29;100869.55;1758817;80;21505;-66
2022/03/11 08:46:09;;;;;;;5.25;2.80;;;;;;;12.50;18.18;100867.92;1769174;80;21485;-67
2022/03/11 08:48:37;;;;;;;2.02;1.50;;;;;;;12.69;18.11;100865.99;1772749;80;21237;-63
2022/03/11 08:51:04;;;;;;;4.90;1.67;;;;;;;12.76;18.38;100855.53;1752184;80;21675;-67
2022/03/11 08:53:32;;;;;;;3.20;1.60;;;;;;;12.83;17.79;100853.93;1745400;80;20958;-65
2022/03/11 08:55:59;;;;;;;1.62;1.50;;;;;;;12.92;17.83;100858.38;1744495;80;21588;-67
2022/03/11 08:58:28;;;;;;;3.52;1.85;;;;;;;13.09;17.68;100850.06;1729048;82;21025;-68
2022/03/11 09:00:55;;;;;;;3.65;2.00;;;;;;;13.34;17.44;100846.59;1726867;82;22081;-67
2022/03/11 09:03:22;;;;;;;4.72;1.60;;;;;;;13.54;17.07;100831.54;1716866;82;20958;-64
2022/03/11 09:05:51;;;;;;;2.77;1.57;;;;;;;13.45;17.07;100847.69;1721147;82;21638;-64
2022/03/11 09:08:18;;;;;;;2.20;1.65;;;;;;;13.43;17.08;100847.83;1724328;82;20947;-74
2022/03/11 09:10:49;;;;;;;3.75;1.42;;;;;;;13.53;17.08;100836.53;1725689;82;20883;-65
2022/03/11 09:13:18;;;;;;;2.92;1.52;;;;;;;13.57;17.01;100844.60;1716848;82;21229;-65
2022/03/11 09:15:45;;;;;;;3.17;1.65;;;;;;;13.73;17.27;100840.34;1725065;82;20927;-65
2022/03/11 09:18:12;;;;;;;2.05;1.50;;;;;;;13.83;16.91;100833.05;1735688;82;20974;-62
2022/03/11 09:20:40;;;;;;;2.85;1.90;;;;;;;13.86;16.93;100830.06;1728927;82;20945;-66
2022/03/11 09:23:10;;;;;;;2.83;1.90;;;;;;;13.78;16.84;100834.88;1737912;82;21478;-67
2022/03/11 09:25:38;;;;;;;2.95;1.60;;;;;;;13.86;17.08;100832.25;1720422;82;21325;-66
2022/03/11 09:28:06;;;;;;;1.90;1.70;;;;;;;14.13;16.75;100832.55;1723624;82;20994;-66
2022/03/11 09:30:36;;;;;;;2.47;1.80;;;;;;;14.24;16.76;100830.91;1735158;82;20982;-66
2022/03/11 09:33:03;;;;;;;2.30;1.62;;;;;;;14.36;16.77;100828.33;1734187;82;21579;-65
2022/03/11 09:35:31;;;;;;;1.77;1.55;;;;;;;14.46;16.62;100811.62;1736884;82;20983;-66
2022/03/11 09:37:59;;;;;;;2.67;1.55;;;;;;;14.37;16.47;100821.95;1737355;82;21185;-65
2022/03/11 09:40:26;;;;;;;3.17;1.80;;;;;;;14.26;16.51;100820.06;1722206;82;21055;-65
2022/03/11 09:42:54;;;;;;;2.12;1.70;;;;;;;14.06;16.60;100818.12;1715922;82;21528;-66
2022/03/11 09:45:23;;;;;;;1.90;1.42;;;;;;;14.02;16.85;100825.65;1737460;82;20939;-65
2022/03/11 09:47:50;;;;;;;1.77;1.40;;;;;;;14.17;16.70;100827.20;1724394;82;21516;-65
2022/03/11 09:50:17;;;;;;;5.55;1.67;;;;;;;14.33;16.67;100821.11;1714291;82;21262;-66
2022/03/11 09:52:46;;;;;;;2.40;1.40;;;;;;;14.39;16.45;100823.96;1715593;82;20903;-66
2022/03/11 09:55:13;;;;;;;2.10;1.40;;;;;;;14.34;16.68;100824.14;1739685;80;21729;-66
2022/03/11 09:57:40;;;;;;;1.90;1.50;;;;;;;14.50;16.64;100829.52;1760715;80;20991;-67
2022/03/11 10:00:10;;;;;;;1.92;1.67;;;;;;;14.56;16.59;100815.48;1762299;80;20964;-64
2022/03/11 10:02:44;;;;;;;2.15;1.50;;;;;;;14.65;16.67;100818.54;1765723;80;21221;-67
2022/03/11 10:05:13;;;;;;;4.55;1.70;;;;;;;14.56;16.20;100824.36;1749995;80;20928;-64
2022/03/11 10:07:40;;;;;;;2.98;1.82;;;;;;;14.22;16.71;100820.87;1743637;80;21544;-69
2022/03/11 10:10:19;;;;;;;2.05;1.62;;;;;;;14.21;16.93;100825.88;1745274;80;20915;-63
2022/03/11 10:12:47;;;;;;;2.37;1.65;;;;;;;14.31;16.86;100826.64;1753924;80;21077;-66
2022/03/11 10:15:14;;;;;;;2.00;1.62;;;;;;;14.12;16.50;100817.48;1772199;80;21223;-66
2022/03/11 10:17:47;;;;;;;3.37;2.15;;;;;;;14.08;16.74;100802.73;1768243;80;20935;-66
2022/03/11 10:20:20;;;;;;;2.00;1.40;;;;;;;13.53;16.86;100807.13;1759831;80;20905;-66
2022/03/11 10:23:01;;;;;;;3.17;1.30;;;;;;;12.73;17.34;100811.28;1764189;80;21006;-66
2022/03/11 10:25:39;;;;;;;2.15;1.57;;;;;;;12.12;17.88;100807.09;1773143;80;20967;-66
2022/03/11 10:28:17;;;;;;;3.47;1.80;;;;;;;11.90;18.31;100806.65;1759644;80;21344;-65
2022/03/11 10:30:45;;;;;;;1.65;1.40;;;;;;;11.87;18.31;100794.45;1749240;80;21613;-66
2022/03/11 10:33:16;;;;;;;3.65;1.57;;;;;;;11.76;18.49;100793.30;1754575;80;20980;-66
2022/03/11 10:35:50;;;;;;;1.95;1.40;;;;;;;11.54;18.67;100788.30;1767063;80;21035;-67
2022/03/11 10:38:19;;;;;;;2.47;1.40;;;;;;;11.37;18.95;100787.22;1764874;80;20887;-66
2022/03/11 10:40:59;;;;;;;2.47;1.80;;;;;;;11.14;19.12;100795.18;1766271;80;21880;-66
2022/03/11 10:43:29;;;;;;;1.32;1.22;;;;;;;10.98;19.14;100791.77;1753339;80;21003;-65
2022/03/11 10:46:06;;;;;;;2.45;1.80;;;;;;;10.72;19.33;100785.80;1748532;80;22261;-66
2022/03/11 10:48:51;;;;;;;1.60;1.10;;;;;;;10.44;19.60;100787.47;1753485;80;21541;-67
2022/03/11 10:51:28;;;;;;;2.72;1.40;;;;;;;10.14;19.72;100783.58;1751260;80;21507;-69
2022/03/11 10:53:56;;;;;;;3.30;1.32;;;;;;;9.77;20.27;100784.12;1756705;80;21245;-65
2022/03/11 10:56:39;;;;;;;1.60;1.32;;;;;;;9.60;20.46;100770.59;1753189;80;21124;-64
2022/03/11 10:59:12;;;;;;;1.77;1.60;;;;;;;9.29;20.50;100773.72;1726692;82;21555;-66
2022/03/11 11:01:42;;;;;;;3.37;1.67;;;;;;;8.97;20.89;100773.79;1765080;80;21058;-66
2022/03/11 11:04:11;;;;;;;4.00;1.70;;;;;;;8.81;21.36;100760.14;1745207;80;21018;-74
2022/03/11 11:06:39;;;;;;;2.47;1.65;;;;;;;8.62;21.77;100767.47;1745656;80;21235;-65
2022/03/11 11:09:07;;;;;;;2.30;1.50;;;;;;;8.49;22.05;100770.77;1754759;80;22165;-68
2022/03/11 11:11:34;;;;;;;2.58;1.67;;;;;;;8.33;21.93;100760.20;1753673;80;20913;-63
2022/03/11 11:14:05;;;;;;;3.20;1.07;;;;;;;8.13;22.03;100767.10;1755324;80;21038;-65
2022/03/11 11:16:39;;;;;;;2.17;1.00;;;;;;;7.96;21.96;100775.55;1746616;80;20993;-63
2022/03/11 11:19:13;;;;;;;1.87;1.00;;;;;;;7.81;22.08;100765.70;1728744;82;21269;-65
2022/03/11 11:21:43;;;;;;;2.90;1.10;;;;;;;7.86;22.35;100767.97;1699414;83;21526;-66
2022/03/11 11:24:14;;;;;;;3.75;1.35;;;;;;;7.86;22.47;100756.05;1759102;80;21505;-65
2022/03/11 11:26:43;;;;;;;2.25;1.20;;;;;;;7.80;22.63;100758.70;1768485;80;20962;-64
2022/03/11 11:29:10;;;;;;;1.52;1.15;;;;;;;7.72;22.88;100754.96;1744630;80;20944;-67
2022/03/11 11:31:37;;;;;;;1.47;1.07;;;;;;;7.63;23.00;100753.91;1759288;80;21320;-64